Time;durP1;ratioP1;P1;durP2;ratioP2;P2;SDS_P1;SDS_P2;PMS_P1;PMS_P2;Temp;Humidity;BMP_temperature;BMP_pressure;BME280_temperature;BME280_humidity;BME280_pressure;Samples;Min_cycle;Max_cycle;Signal;HPM_P1;HPM_P2
2023/02/05 00:02:50;;;;;;;6.03;3.30;;;22.70;38.40;;;;;;6127862;28;80362;-64
2023/02/05 00:05:50;;;;;;;4.70;3.28;;;22.70;38.20;;;;;;6127632;28;81249;-65
2023/02/05 00:08:51;;;;;;;5.13;3.38;;;22.70;38.10;;;;;;6127613;28;80136;-65
2023/02/05 00:11:51;;;;;;;4.80;3.10;;;22.70;38.10;;;;;;6135457;28;81088;-63
2023/02/05 00:14:52;;;;;;;5.90;3.38;;;22.70;38.00;;;;;;6133872;28;82796;-62
2023/02/05 00:17:52;;;;;;;5.55;3.10;;;22.60;38.00;;;;;;6115340;28;81076;-63
2023/02/05 00:20:53;;;;;;;4.90;3.20;;;22.60;38.00;;;;;;6127824;28;80376;-64
2023/02/05 00:23:53;;;;;;;6.00;3.28;;;22.60;37.90;;;;;;6140939;28;80316;-63
2023/02/05 00:26:54;;;;;;;8.18;3.33;;;22.60;37.70;;;;;;6140740;28;80780;-63
2023/02/05 00:29:55;;;;;;;4.10;3.03;;;22.50;37.50;;;;;;6148651;28;81289;-62
2023/02/05 00:32:55;;;;;;;4.40;2.88;;;22.60;37.40;;;;;;6144784;28;83542;-62
2023/02/05 00:35:57;;;;;;;4.22;3.10;;;22.50;37.30;;;;;;6127141;28;81637;-62
2023/02/05 00:38:58;;;;;;;4.38;2.90;;;22.50;37.30;;;;;;6137258;28;80953;-62
2023/02/05 00:41:58;;;;;;;2.88;2.42;;;22.50;37.30;;;;;;6126885;28;80702;-63
2023/02/05 00:44:59;;;;;;;4.95;2.83;;;22.50;37.30;;;;;;6160574;28;81737;-64
2023/02/05 00:47:59;;;;;;;4.03;2.90;;;22.50;37.10;;;;;;6125443;28;80428;-61
2023/02/05 00:51:01;;;;;;;4.22;2.50;;;22.40;37.10;;;;;;6123584;28;80601;-62
2023/02/05 00:54:02;;;;;;;3.50;2.45;;;22.40;37.10;;;;;;6132737;28;82710;-64
2023/02/05 00:57:02;;;;;;;4.97;2.60;;;22.40;37.40;;;;;;6148492;28;84033;-65
2023/02/05 01:00:03;;;;;;;3.70;2.70;;;22.40;37.40;;;;;;6125260;28;83746;-64
2023/02/05 01:03:03;;;;;;;4.50;2.80;;;22.40;37.50;;;;;;6114129;28;80470;-65
2023/02/05 01:06:04;;;;;;;3.58;2.70;;;22.30;37.40;;;;;;6117740;28;80388;-65
2023/02/05 01:09:04;;;;;;;3.65;2.35;;;22.30;37.40;;;;;;6117393;28;80903;-66
2023/02/05 01:12:05;;;;;;;4.47;2.40;;;22.30;38.20;;;;;;6116463;28;80275;-65
2023/02/05 01:15:05;;;;;;;4.28;2.55;;;22.30;37.70;;;;;;6126065;28;80890;-63
2023/02/05 01:18:06;;;;;;;3.28;2.50;;;22.30;37.70;;;;;;6126039;28;80603;-64
2023/02/05 01:21:06;;;;;;;4.10;2.53;;;22.30;37.90;;;;;;6121305;28;82057;-64
2023/02/05 01:24:07;;;;;;;2.95;2.17;;;22.30;37.90;;;;;;6128195;28;82117;-65
2023/02/05 01:27:08;;;;;;;3.80;2.67;;;22.20;37.90;;;;;;6120666;28;80361;-66
2023/02/05 01:30:10;;;;;;;4.75;2.30;;;22.20;38.00;;;;;;6130455;28;80542;-64
2023/02/05 01:33:11;;;;;;;4.93;2.80;;;22.20;38.00;;;;;;6110121;28;80498;-63
2023/02/05 01:36:11;;;;;;;3.83;2.42;;;22.20;38.20;;;;;;6119727;28;80696;-64
2023/02/05 01:39:12;;;;;;;3.60;2.58;;;22.20;38.00;;;;;;6115075;28;82849;-63
2023/02/05 01:42:12;;;;;;;4.45;2.63;;;22.20;38.10;;;;;;6137139;28;81617;-64
2023/02/05 01:45:13;;;;;;;3.20;2.13;;;22.20;38.00;;;;;;6118959;28;80234;-65
2023/02/05 01:48:13;;;;;;;3.70;2.50;;;22.20;37.90;;;;;;6119265;28;80373;-64
2023/02/05 01:51:14;;;;;;;3.75;2.63;;;22.20;37.90;;;;;;6125214;28;83275;-59
2023/02/05 01:54:14;;;;;;;3.17;2.28;;;22.20;37.80;;;;;;6119608;28;80525;-59
2023/02/05 01:57:15;;;;;;;3.88;2.42;;;22.20;37.80;;;;;;6120197;28;80213;-58
2023/02/05 02:00:15;;;;;;;4.18;2.42;;;22.20;37.80;;;;;;6114860;28;83273;-58
2023/02/05 02:03:16;;;;;;;3.92;2.47;;;22.20;37.90;;;;;;6130931;28;80617;-58
2023/02/05 02:06:16;;;;;;;3.47;2.30;;;22.20;37.80;;;;;;6119985;28;80308;-59
2023/02/05 02:09:17;;;;;;;4.38;2.72;;;22.20;37.90;;;;;;6134292;28;80948;-56
2023/02/05 02:12:18;;;;;;;4.32;2.25;;;22.20;37.90;;;;;;6157292;28;83232;-58
2023/02/05 02:15:18;;;;;;;3.55;2.25;;;22.20;37.90;;;;;;6124845;28;80415;-59
2023/02/05 02:18:25;;;;;;;2.70;2.25;;;22.20;37.90;;;;;;6129834;28;81031;-57
2023/02/05 02:21:25;;;;;;;3.35;2.20;;;22.20;37.90;;;;;;6116371;28;80300;-59
2023/02/05 02:24:26;;;;;;;3.83;2.90;;;22.20;37.90;;;;;;6123152;28;80505;-58
2023/02/05 02:27:26;;;;;;;4.80;2.60;;;22.20;37.90;;;;;;6112120;28;83460;-58
2023/02/05 02:30:27;;;;;;;3.60;2.03;;;22.20;37.80;;;;;;6105823;28;80611;-59
2023/02/05 02:33:27;;;;;;;3.85;2.47;;;22.10;37.80;;;;;;6134594;28;83772;-59
2023/02/05 02:36:28;;;;;;;3.47;2.40;;;22.10;37.70;;;;;;6137677;28;82927;-59
2023/02/05 02:39:28;;;;;;;3.63;2.10;;;22.10;37.70;;;;;;6117374;28;82100;-59
2023/02/05 02:42:29;;;;;;;2.75;2.00;;;22.10;37.70;;;;;;6120518;28;80507;-57
2023/02/05 02:45:30;;;;;;;3.25;2.35;;;22.10;37.70;;;;;;6107958;28;83009;-58
2023/02/05 02:48:31;;;;;;;3.78;2.35;;;22.10;37.60;;;;;;6116878;28;83288;-57
2023/02/05 02:51:31;;;;;;;3.33;2.42;;;22.10;37.60;;;;;;6126697;28;80717;-57
2023/02/05 02:54:32;;;;;;;4.72;2.70;;;22.10;37.50;;;;;;6106378;28;81143;-59
2023/02/05 02:57:33;;;;;;;3.00;2.28;;;22.10;37.50;;;;;;6107644;28;83069;-58
2023/02/05 03:00:33;;;;;;;4.28;2.67;;;22.00;37.40;;;;;;6105533;28;81085;-59
2023/02/05 03:03:34;;;;;;;4.55;2.58;;;22.00;37.30;;;;;;6129754;28;83206;-59
2023/02/05 03:06:34;;;;;;;3.17;2.28;;;22.10;37.40;;;;;;6131211;28;80644;-59
2023/02/05 03:09:35;;;;;;;3.10;2.08;;;22.00;37.30;;;;;;6116933;28;80677;-58
2023/02/05 03:12:36;;;;;;;2.58;2.05;;;22.10;37.30;;;;;;6114569;28;80479;-59
2023/02/05 03:15:36;;;;;;;2.50;2.10;;;22.00;37.30;;;;;;6115434;28;82333;-59
2023/02/05 03:18:37;;;;;;;4.93;2.75;;;22.00;37.20;;;;;;6106228;28;80485;-60
2023/02/05 03:21:38;;;;;;;3.63;2.17;;;22.00;37.20;;;;;;6120896;28;83309;-58
2023/02/05 03:24:38;;;;;;;3.72;2.50;;;22.00;37.10;;;;;;6117039;28;82078;-66
2023/02/05 03:27:39;;;;;;;5.13;2.63;;;22.00;37.00;;;;;;6133012;28;82444;-66
2023/02/05 03:30:40;;;;;;;4.13;2.42;;;22.00;36.80;;;;;;6105306;28;82924;-65
2023/02/05 03:33:41;;;;;;;3.75;2.08;;;22.00;36.80;;;;;;6118946;28;83334;-64
2023/02/05 03:36:42;;;;;;;3.28;2.40;;;22.00;36.70;;;;;;6141483;28;83276;-62
2023/02/05 03:39:44;;;;;;;3.92;2.58;;;22.00;36.70;;;;;;6152119;28;81493;-65
2023/02/05 03:42:45;;;;;;;2.80;2.30;;;22.00;36.70;;;;;;6127767;28;83573;-65
2023/02/05 03:45:46;;;;;;;3.80;2.28;;;22.00;36.60;;;;;;6125785;28;84682;-65
2023/02/05 03:48:47;;;;;;;4.05;2.30;;;22.00;36.50;;;;;;6125691;28;83432;-64
2023/02/05 03:51:48;;;;;;;3.70;2.35;;;22.00;36.60;;;;;;6147443;28;80148;-66
2023/02/05 03:54:49;;;;;;;3.17;2.15;;;22.00;37.10;;;;;;6148751;28;83447;-64
2023/02/05 03:57:55;;;;;;;3.28;1.95;;;22.00;36.40;;;;;;6126129;28;82855;-63
2023/02/05 04:00:56;;;;;;;4.30;2.42;;;21.90;36.40;;;;;;6108937;28;83492;-64
2023/02/05 04:03:56;;;;;;;4.57;2.40;;;22.00;36.40;;;;;;6115996;28;81611;-65
2023/02/05 04:06:58;;;;;;;2.60;2.10;;;22.00;36.10;;;;;;6110407;28;83321;-63
2023/02/05 04:09:58;;;;;;;2.58;2.15;;;22.00;36.10;;;;;;6108952;28;83041;-62
2023/02/05 04:13:00;;;;;;;5.13;2.50;;;22.00;36.20;;;;;;6133388;28;82903;-58
2023/02/05 04:16:00;;;;;;;4.10;2.50;;;22.00;36.00;;;;;;6127038;28;81370;-63
2023/02/05 04:19:01;;;;;;;3.08;2.20;;;22.10;35.70;;;;;;6134051;28;83251;-61
2023/02/05 04:22:03;;;;;;;5.00;2.60;;;22.10;35.50;;;;;;6140522;28;82534;-63
2023/02/05 04:25:07;;;;;;;3.30;2.20;;;22.20;35.30;;;;;;6116923;28;83281;-61
2023/02/05 04:28:08;;;;;;;3.80;2.00;;;22.20;34.90;;;;;;6117566;28;81588;-62
2023/02/05 04:31:10;;;;;;;3.65;2.38;;;22.30;35.00;;;;;;6132817;28;83491;-64
2023/02/05 04:34:12;;;;;;;4.57;2.20;;;22.30;35.00;;;;;;6125064;28;81746;-63
2023/02/05 04:37:13;;;;;;;3.33;2.38;;;22.40;35.00;;;;;;6140363;28;83376;-65
2023/02/05 04:40:13;;;;;;;2.83;2.35;;;22.40;34.70;;;;;;6121021;28;81381;-61
2023/02/05 04:43:14;;;;;;;3.05;1.92;;;22.50;34.50;;;;;;6131836;28;82073;-63
2023/02/05 04:46:14;;;;;;;2.58;2.10;;;22.50;34.50;;;;;;6132761;28;80654;-62
2023/02/05 04:49:15;;;;;;;2.22;1.98;;;22.50;34.30;;;;;;6133955;28;80447;-61
2023/02/05 04:52:15;;;;;;;4.60;2.45;;;22.60;34.40;;;;;;6137097;28;81412;-59
2023/02/05 04:55:16;;;;;;;2.42;2.00;;;22.60;34.20;;;;;;6135283;28;80607;-60
2023/02/05 04:58:16;;;;;;;2.40;1.98;;;22.60;34.30;;;;;;6124900;28;80414;-59
2023/02/05 05:01:17;;;;;;;3.25;2.22;;;22.60;34.30;;;;;;6118344;28;80197;-60
2023/02/05 05:04:17;;;;;;;2.08;1.70;;;22.70;34.30;;;;;;6118360;28;80682;-62
2023/02/05 05:07:18;;;;;;;3.50;2.35;;;22.70;34.20;;;;;;6118138;28;83727;-58
2023/02/05 05:10:18;;;;;;;2.22;1.73;;;22.70;33.90;;;;;;6116223;28;80232;-60
2023/02/05 05:13:19;;;;;;;3.42;2.00;;;22.70;33.80;;;;;;6111608;28;80697;-61
2023/02/05 05:16:19;;;;;;;3.03;2.20;;;22.70;33.60;;;;;;6089796;28;84829;-62
2023/02/05 05:19:20;;;;;;;3.03;2.22;;;22.80;33.70;;;;;;6091983;28;84025;-60
2023/02/05 05:22:20;;;;;;;3.33;2.15;;;22.80;33.80;;;;;;6094995;28;82127;-61
2023/02/05 05:25:21;;;;;;;2.20;2.00;;;22.80;33.90;;;;;;6100254;28;82888;-60
2023/02/05 05:28:21;;;;;;;3.00;1.95;;;22.80;33.90;;;;;;6100716;28;81292;-60
2023/02/05 05:31:22;;;;;;;3.40;2.25;;;22.80;34.00;;;;;;6105932;28;80582;-62
2023/02/05 05:34:22;;;;;;;2.10;1.67;;;22.80;33.80;;;;;;6128667;28;82186;-50
2023/02/05 05:37:23;;;;;;;2.63;1.98;;;22.90;34.80;;;;;;6102909;28;80982;-52
2023/02/05 05:43:46;;;;;;;2.83;1.88;;;22.90;34.60;;;;;;6105361;28;80531;-52
2023/02/05 05:46:46;;;;;;;29.95;3.30;;;22.90;34.50;;;;;;6133542;28;80678;-51
2023/02/05 05:49:47;;;;;;;2.63;1.80;;;22.90;34.60;;;;;;6110946;28;83239;-49
2023/02/05 05:52:47;;;;;;;4.03;1.80;;;22.90;34.60;;;;;;6105967;28;81490;-52
2023/02/05 05:55:48;;;;;;;4.80;1.83;;;22.90;34.60;;;;;;6106767;28;81004;-52
2023/02/05 05:58:48;;;;;;;10.63;2.30;;;22.90;34.60;;;;;;6103311;28;85104;-50
2023/02/05 06:01:49;;;;;;;2.30;1.67;;;22.90;34.50;;;;;;6097139;28;80473;-52
2023/02/05 06:04:49;;;;;;;2.72;1.88;;;22.90;34.10;;;;;;6109860;28;81247;-47
2023/02/05 06:07:50;;;;;;;4.63;1.80;;;22.80;33.90;;;;;;6104084;28;81105;-50
2023/02/05 06:10:50;;;;;;;2.42;1.88;;;22.90;33.70;;;;;;6109702;28;80560;-51
2023/02/05 06:13:51;;;;;;;6.82;2.05;;;22.90;33.50;;;;;;6106587;28;81422;-49
2023/02/05 06:16:54;;;;;;;3.75;1.85;;;22.90;33.50;;;;;;6108974;28;80629;-49
2023/02/05 06:19:54;;;;;;;3.53;2.45;;;22.80;33.50;;;;;;6112880;28;80717;-47
2023/02/05 06:22:55;;;;;;;3.65;2.28;;;22.80;33.70;;;;;;6114356;28;80528;-47
2023/02/05 06:25:55;;;;;;;3.47;2.20;;;22.80;33.40;;;;;;6125638;28;81346;-50
2023/02/05 06:28:56;;;;;;;5.68;2.15;;;22.80;33.30;;;;;;6130589;28;80569;-47
2023/02/05 06:31:56;;;;;;;4.50;2.00;;;22.70;32.80;;;;;;6113507;28;81304;-51
2023/02/05 06:34:57;;;;;;;4.20;2.28;;;22.70;33.00;;;;;;6122084;28;80474;-51
2023/02/05 06:37:57;;;;;;;5.90;2.50;;;22.70;33.20;;;;;;6120604;28;81956;-58
2023/02/05 06:40:58;;;;;;;4.32;2.28;;;22.60;33.60;;;;;;6123017;28;80287;-51
2023/02/05 06:43:58;;;;;;;4.65;2.63;;;22.60;33.70;;;;;;6124520;28;81745;-53
2023/02/05 06:46:59;;;;;;;5.32;2.95;;;22.60;33.50;;;;;;6117042;28;80403;-52
2023/02/05 06:49:59;;;;;;;5.15;3.25;;;22.60;33.70;;;;;;6140057;28;81499;-52
2023/02/05 06:53:00;;;;;;;5.18;3.33;;;22.50;33.90;;;;;;6117411;28;80983;-50
2023/02/05 06:56:00;;;;;;;10.93;6.32;;;22.60;34.10;;;;;;6123439;28;80277;-51
2023/02/05 06:59:01;;;;;;;10.18;5.50;;;22.50;34.20;;;;;;6129065;28;80490;-49
2023/02/05 07:02:01;;;;;;;8.57;5.20;;;22.50;34.60;;;;;;6114689;28;80412;-52
2023/02/05 07:05:02;;;;;;;8.02;4.97;;;22.50;34.70;;;;;;6107807;28;84452;-51
2023/02/05 07:08:04;;;;;;;7.97;5.30;;;22.50;34.70;;;;;;6100780;28;81143;-52
2023/02/05 07:11:04;;;;;;;10.88;5.55;;;22.40;34.70;;;;;;6108040;28;81208;-52
2023/02/05 07:14:05;;;;;;;7.75;4.68;;;22.40;34.40;;;;;;6105879;28;80881;-51
2023/02/05 07:17:06;;;;;;;7.72;5.10;;;22.40;34.60;;;;;;6106356;28;81076;-60
2023/02/05 07:20:06;;;;;;;7.63;4.65;;;22.30;34.30;;;;;;6107751;28;80389;-51
2023/02/05 07:23:07;;;;;;;7.30;4.47;;;22.30;33.90;;;;;;6103306;28;86406;-57
2023/02/05 07:26:08;;;;;;;6.07;4.30;;;22.20;33.90;;;;;;6113275;28;80725;-57
2023/02/05 07:29:08;;;;;;;6.05;4.32;;;22.10;33.80;;;;;;6106434;28;80695;-59
2023/02/05 07:32:09;;;;;;;8.25;3.97;;;22.10;34.10;;;;;;6100807;28;80831;-57
2023/02/05 07:35:09;;;;;;;5.43;3.05;;;22.10;33.80;;;;;;6096072;28;81876;-56
2023/02/05 07:38:10;;;;;;;5.35;3.33;;;22.10;33.60;;;;;;6097736;28;81208;-53
2023/02/05 07:41:10;;;;;;;5.07;3.17;;;22.10;33.60;;;;;;6107250;28;80721;-56
2023/02/05 07:44:11;;;;;;;6.22;3.25;;;22.10;33.40;;;;;;6108476;28;80983;-56
2023/02/05 07:47:12;;;;;;;6.07;3.13;;;22.00;33.20;;;;;;6092004;28;80351;-58
2023/02/05 07:50:12;;;;;;;7.50;3.35;;;22.00;33.40;;;;;;6089529;28;82026;-57
2023/02/05 07:53:13;;;;;;;6.43;3.40;;;22.00;33.40;;;;;;6091962;28;81630;-57
2023/02/05 07:56:14;;;;;;;5.53;3.53;;;22.00;33.40;;;;;;6091279;28;80849;-58
2023/02/05 07:59:14;;;;;;;11.10;3.85;;;22.00;33.60;;;;;;6093886;28;81133;-58
2023/02/05 08:02:15;;;;;;;6.85;3.80;;;21.90;33.20;;;;;;6099097;28;80426;-59
2023/02/05 08:05:15;;;;;;;5.85;3.30;;;21.90;32.80;;;;;;6104672;28;80566;-59
2023/02/05 08:08:16;;;;;;;5.15;3.30;;;21.90;33.00;;;;;;6097825;28;80398;-60
2023/02/05 08:11:16;;;;;;;5.35;4.32;;;21.90;33.10;;;;;;6098842;28;83487;-59
2023/02/05 08:14:17;;;;;;;5.45;3.78;;;22.00;33.20;;;;;;6102714;28;80795;-60
2023/02/05 08:17:17;;;;;;;5.50;3.30;;;22.00;33.20;;;;;;6104183;28;84606;-61
2023/02/05 08:20:18;;;;;;;5.68;3.70;;;22.00;33.50;;;;;;6102573;28;80930;-62
2023/02/05 08:23:19;;;;;;;5.55;3.15;;;22.00;33.50;;;;;;6099821;28;80477;-62
2023/02/05 08:26:19;;;;;;;10.55;3.45;;;22.00;33.60;;;;;;6107439;28;80510;-61
2023/02/05 08:29:20;;;;;;;6.00;3.42;;;22.00;33.50;;;;;;6094592;28;82869;-61
2023/02/05 08:32:21;;;;;;;4.97;3.50;;;22.00;33.70;;;;;;6101201;28;80484;-58
2023/02/05 08:35:21;;;;;;;7.07;4.32;;;22.10;33.70;;;;;;6104497;28;81815;-60
2023/02/05 08:38:22;;;;;;;7.10;4.55;;;22.10;33.60;;;;;;6111943;28;81213;-62
2023/02/05 08:41:22;;;;;;;6.55;4.32;;;22.20;33.60;;;;;;6091841;28;83431;-59
2023/02/05 08:44:23;;;;;;;5.82;4.07;;;22.20;33.50;;;;;;6099567;28;84324;-60
2023/02/05 08:47:23;;;;;;;7.70;5.00;;;22.20;33.40;;;;;;6102452;28;80896;-60
2023/02/05 08:50:24;;;;;;;8.55;5.13;;;22.30;33.50;;;;;;6099377;28;80171;-59
2023/02/05 08:53:24;;;;;;;6.80;4.20;;;22.30;33.20;;;;;;6098994;28;80573;-60
2023/02/05 08:56:25;;;;;;;6.82;4.57;;;22.30;33.30;;;;;;6096277;28;81714;-60
2023/02/05 08:59:25;;;;;;;6.90;4.10;;;22.40;33.50;;;;;;6103076;28;81373;-61
2023/02/05 09:02:26;;;;;;;6.97;3.90;;;22.50;33.70;;;;;;6118935;28;82615;-60
2023/02/05 09:05:26;;;;;;;16.90;8.52;;;22.50;33.60;;;;;;6104855;28;84364;-61
2023/02/05 09:08:27;;;;;;;127.18;57.22;;;22.50;33.60;;;;;;6117711;28;84230;-59
2023/02/05 09:11:29;;;;;;;151.88;66.22;;;22.60;34.10;;;;;;6113949;28;83379;-62
2023/02/05 09:14:35;;;;;;;180.80;82.53;;;22.60;34.20;;;;;;6101323;28;88184;-58
2023/02/05 09:17:35;;;;;;;241.88;105.68;;;22.70;34.20;;;;;;6106614;28;88160;-48
2023/02/05 09:20:36;;;;;;;253.27;116.38;;;22.70;34.20;;;;;;6110914;28;91316;-50
2023/02/05 09:23:36;;;;;;;257.02;110.38;;;22.80;34.40;;;;;;6104928;28;86273;-56
2023/02/05 09:26:37;;;;;;;183.43;83.20;;;22.80;34.70;;;;;;6106427;28;86884;-50
2023/02/05 09:29:37;;;;;;;154.40;70.57;;;22.80;34.40;;;;;;6104894;28;86491;-50
2023/02/05 09:32:38;;;;;;;115.47;56.95;;;22.80;34.50;;;;;;6111956;28;83239;-48
2023/02/05 09:35:38;;;;;;;107.97;50.47;;;22.80;34.80;;;;;;6110427;28;83195;-47
2023/02/05 09:38:40;;;;;;;95.78;42.13;;;22.80;34.70;;;;;;6120160;28;83100;-57
2023/02/05 09:41:41;;;;;;;79.72;37.55;;;22.80;34.90;;;;;;6108857;28;84802;-50
2023/02/05 09:44:42;;;;;;;74.43;33.47;;;22.90;35.10;;;;;;6107309;28;85752;-51
2023/02/05 09:47:42;;;;;;;70.55;32.78;;;22.90;34.70;;;;;;6116851;28;84557;-50
2023/02/05 09:50:43;;;;;;;58.38;27.63;;;22.80;34.60;;;;;;6119155;28;83172;-59
2023/02/05 09:53:43;;;;;;;48.45;24.33;;;22.90;34.60;;;;;;6114604;28;83291;-59
2023/02/05 09:56:44;;;;;;;56.95;25.00;;;22.90;34.30;;;;;;6124581;28;88510;-60
2023/02/05 09:59:44;;;;;;;45.10;21.17;;;22.90;34.30;;;;;;6109364;28;82976;-59
2023/02/05 10:02:48;;;;;;;45.63;20.73;;;22.90;34.00;;;;;;6112598;28;85097;-59
2023/02/05 10:05:49;;;;;;;35.67;18.15;;;22.90;34.00;;;;;;6117167;28;83108;-59
2023/02/05 10:08:49;;;;;;;34.38;17.05;;;22.90;33.90;;;;;;6106999;28;83339;-61
2023/02/05 10:11:50;;;;;;;37.47;17.40;;;22.90;33.60;;;;;;6104338;28;83432;-60
2023/02/05 10:14:51;;;;;;;33.65;16.25;;;22.90;34.10;;;;;;6106875;28;85015;-63
2023/02/05 10:17:51;;;;;;;33.83;15.35;;;22.90;34.00;;;;;;6113194;28;90926;-61
2023/02/05 10:20:52;;;;;;;27.00;13.35;;;22.90;33.80;;;;;;6107207;28;83020;-59
2023/02/05 10:23:52;;;;;;;21.73;12.50;;;22.80;33.70;;;;;;6103198;28;83303;-59
2023/02/05 10:26:53;;;;;;;25.33;11.82;;;22.80;33.60;;;;;;6108758;28;87762;-63
2023/02/05 10:29:53;;;;;;;23.58;12.35;;;22.80;33.50;;;;;;6100105;28;83128;-63
2023/02/05 10:32:54;;;;;;;21.17;10.48;;;22.80;33.60;;;;;;6109872;28;84228;-60
2023/02/05 10:35:55;;;;;;;21.20;10.45;;;22.80;33.50;;;;;;6102664;28;84544;-61
2023/02/05 10:38:55;;;;;;;20.23;10.93;;;22.80;33.50;;;;;;6103766;28;83168;-61
2023/02/05 10:41:56;;;;;;;20.40;9.32;;;22.80;33.40;;;;;;6107664;28;83312;-67
2023/02/05 10:44:56;;;;;;;22.98;10.32;;;22.70;33.10;;;;;;6114629;28;82984;-62
2023/02/05 10:47:57;;;;;;;15.55;8.32;;;22.70;33.70;;;;;;6101826;28;82879;-63
2023/02/05 10:50:58;;;;;;;19.77;8.82;;;22.70;33.60;;;;;;6101724;28;82905;-63
2023/02/05 10:53:58;;;;;;;21.70;8.50;;;22.70;33.80;;;;;;6116339;28;80780;-61
2023/02/05 10:56:59;;;;;;;22.02;8.48;;;22.70;35.10;;;;;;6109604;28;80131;-61
2023/02/05 10:59:59;;;;;;;18.15;8.90;;;22.60;36.50;;;;;;6118922;28;80885;-61
2023/02/05 11:03:00;;;;;;;17.48;7.70;;;22.60;37.60;;;;;;6115755;28;81860;-60
2023/02/05 11:06:00;;;;;;;16.13;7.60;;;22.60;36.50;;;;;;6119098;28;81166;-59
2023/02/05 11:09:01;;;;;;;18.55;7.65;;;22.60;38.10;;;;;;6120503;28;81299;-62
2023/02/05 11:12:01;;;;;;;17.38;7.68;;;22.60;38.60;;;;;;6118963;28;80363;-64
2023/02/05 11:15:02;;;;;;;17.45;6.72;;;22.60;38.70;;;;;;6118003;28;81036;-60
2023/02/05 11:18:02;;;;;;;13.32;6.60;;;22.60;39.20;;;;;;6121407;28;81027;-61
2023/02/05 11:21:03;;;;;;;13.88;6.53;;;22.60;40.20;;;;;;6124705;28;80845;-60
2023/02/05 11:24:03;;;;;;;14.82;6.75;;;22.60;40.30;;;;;;6116206;28;80658;-59
2023/02/05 11:27:04;;;;;;;11.20;5.65;;;22.50;41.00;;;;;;6112495;28;80607;-61
2023/02/05 11:30:04;;;;;;;12.05;6.43;;;22.50;40.20;;;;;;6127083;28;81763;-60
2023/02/05 11:33:05;;;;;;;14.85;7.32;;;22.50;40.70;;;;;;6111676;28;80396;-60
2023/02/05 11:36:05;;;;;;;14.45;7.40;;;22.50;40.80;;;;;;6108037;28;81364;-61
2023/02/05 11:39:06;;;;;;;11.65;6.72;;;22.50;40.90;;;;;;6105365;28;80347;-64
2023/02/05 11:42:08;;;;;;;9.80;5.72;;;22.40;38.70;;;;;;6104969;28;80409;-62
2023/02/05 11:45:08;;;;;;;8.68;5.57;;;22.40;37.60;;;;;;6111945;28;80676;-61
2023/02/05 11:48:09;;;;;;;8.65;5.10;;;22.40;38.00;;;;;;6119088;28;81007;-62
2023/02/05 11:51:10;;;;;;;12.00;5.97;;;22.40;37.80;;;;;;6108729;28;80896;-61
2023/02/05 11:54:10;;;;;;;7.57;4.88;;;22.50;38.00;;;;;;6110308;28;81443;-61
2023/02/05 11:57:11;;;;;;;8.18;4.75;;;22.40;38.50;;;;;;6117732;28;80100;-61
2023/02/05 12:00:11;;;;;;;15.15;5.05;;;22.40;39.00;;;;;;6109321;28;83871;-60
2023/02/05 12:03:12;;;;;;;12.25;4.75;;;22.40;40.40;;;;;;6102838;28;80815;-60
2023/02/05 12:06:12;;;;;;;9.80;4.78;;;22.30;41.20;;;;;;6096526;28;84063;-60
2023/02/05 12:09:13;;;;;;;8.88;4.90;;;22.30;41.10;;;;;;6109462;28;80673;-60
2023/02/05 12:12:17;;;;;;;11.75;4.70;;;22.40;41.60;;;;;;6104914;28;80718;-62
2023/02/05 12:15:18;;;;;;;7.53;4.65;;;22.30;41.30;;;;;;6106867;28;87467;-60
2023/02/05 12:18:18;;;;;;;10.90;4.57;;;22.30;41.80;;;;;;6104158;28;81582;-57
2023/02/05 12:21:19;;;;;;;7.15;4.20;;;22.30;41.50;;;;;;6098845;28;80395;-59
2023/02/05 12:24:19;;;;;;;7.43;4.13;;;22.30;41.20;;;;;;6102485;28;81051;-61
2023/02/05 12:27:20;;;;;;;7.60;4.53;;;22.30;40.80;;;;;;6101275;28;82194;-61
2023/02/05 12:30:20;;;;;;;5.57;3.65;;;22.40;41.80;;;;;;6103444;28;81392;-60
2023/02/05 12:33:22;;;;;;;6.50;4.13;;;22.40;40.90;;;;;;6101628;28;80374;-60
2023/02/05 12:36:23;;;;;;;13.95;4.38;;;22.50;41.50;;;;;;6111111;28;80591;-63
2023/02/05 12:39:23;;;;;;;6.63;4.10;;;22.60;41.90;;;;;;6105642;28;81388;-59
2023/02/05 12:42:24;;;;;;;5.38;3.47;;;22.60;41.70;;;;;;6107209;28;80510;-61
2023/02/05 12:45:24;;;;;;;9.80;4.25;;;22.60;41.20;;;;;;6104427;28;83647;-61
2023/02/05 12:48:25;;;;;;;6.93;3.78;;;22.70;40.60;;;;;;6099467;28;80813;-60
2023/02/05 12:51:26;;;;;;;5.50;3.70;;;22.70;40.30;;;;;;6102460;28;80718;-61
2023/02/05 12:54:26;;;;;;;5.93;3.53;;;22.70;39.60;;;;;;6099957;28;80464;-61
2023/02/05 12:57:27;;;;;;;6.05;3.58;;;22.70;38.60;;;;;;6082062;28;80828;-63
2023/02/05 13:00:28;;;;;;;4.97;3.25;;;22.80;38.00;;;;;;6090089;28;81717;-61
2023/02/05 13:03:29;;;;;;;5.38;3.38;;;22.80;37.80;;;;;;6106384;28;81109;-60
2023/02/05 13:06:29;;;;;;;6.18;3.50;;;22.80;37.90;;;;;;6091985;28;80631;-61
2023/02/05 13:09:30;;;;;;;4.90;3.35;;;22.90;38.00;;;;;;6106969;28;81754;-64
2023/02/05 13:12:30;;;;;;;5.18;3.03;;;23.00;38.00;;;;;;6097879;28;84287;-63
2023/02/05 13:15:31;;;;;;;6.55;3.10;;;23.00;37.90;;;;;;6103204;28;80655;-61
2023/02/05 13:18:31;;;;;;;5.68;3.08;;;23.00;37.70;;;;;;6108108;28;81573;-62
2023/02/05 13:31:30;;;;;;;4.40;2.63;;;23.10;36.90;;;;;;6107800;28;83576;-61
2023/02/05 13:34:30;;;;;;;17.25;3.53;;;23.10;36.60;;;;;;6115898;28;80539;-64
2023/02/05 13:37:31;;;;;;;4.70;3.20;;;23.10;36.40;;;;;;6110187;28;80836;-62
2023/02/05 13:40:32;;;;;;;4.78;3.20;;;23.10;36.10;;;;;;6120544;28;80562;-63
2023/02/05 13:43:32;;;;;;;3.67;2.72;;;23.10;35.90;;;;;;6121601;28;81895;-63
2023/02/05 13:46:33;;;;;;;5.72;3.58;;;23.10;35.80;;;;;;6121200;28;80633;-62
2023/02/05 13:49:33;;;;;;;5.38;3.40;;;23.10;35.60;;;;;;6114638;28;82343;-66
2023/02/05 13:52:34;;;;;;;5.43;3.58;;;23.10;35.10;;;;;;6117034;28;80859;-65
2023/02/05 13:55:34;;;;;;;5.45;3.63;;;23.10;34.80;;;;;;6127279;28;80581;-63
2023/02/05 13:58:35;;;;;;;5.38;3.38;;;23.10;34.70;;;;;;6126222;28;86233;-63
2023/02/05 14:01:35;;;;;;;6.35;3.40;;;23.00;34.50;;;;;;6119089;28;80905;-63
2023/02/05 14:04:36;;;;;;;4.57;3.22;;;23.00;34.40;;;;;;6122012;28;82933;-67
2023/02/05 14:07:36;;;;;;;7.43;3.50;;;23.00;34.80;;;;;;6128073;28;81239;-55
2023/02/05 14:10:37;;;;;;;6.38;3.40;;;22.90;34.70;;;;;;6122566;28;80696;-54
2023/02/05 14:13:37;;;;;;;5.55;3.30;;;23.00;34.60;;;;;;6127050;28;81505;-54
2023/02/05 14:16:38;;;;;;;7.43;4.28;;;22.90;34.50;;;;;;6123462;28;82743;-53
2023/02/05 14:19:38;;;;;;;9.38;4.40;;;22.90;34.50;;;;;;6115087;28;86072;-56
2023/02/05 14:22:40;;;;;;;11.43;3.85;;;22.90;34.40;;;;;;6128331;28;80896;-55
2023/02/05 14:25:41;;;;;;;8.00;4.60;;;22.90;34.30;;;;;;6132458;28;80995;-54
2023/02/05 14:28:42;;;;;;;7.32;4.68;;;22.80;34.70;;;;;;6127820;28;80431;-55
2023/02/05 14:31:42;;;;;;;7.82;4.85;;;22.80;34.70;;;;;;6115896;28;80871;-53
2023/02/05 14:34:43;;;;;;;8.07;5.53;;;22.80;34.50;;;;;;6112683;28;80278;-53
2023/02/05 14:37:44;;;;;;;10.00;5.20;;;22.80;35.00;;;;;;6125099;28;80913;-53
2023/02/05 14:40:44;;;;;;;8.07;5.43;;;22.70;34.70;;;;;;6122459;28;82489;-53
2023/02/05 14:43:48;;;;;;;8.95;5.18;;;22.70;34.60;;;;;;6120949;28;81510;-52
2023/02/05 14:46:48;;;;;;;9.05;5.47;;;22.70;34.80;;;;;;6112720;28;81003;-52
2023/02/05 14:49:49;;;;;;;8.07;5.40;;;22.70;34.70;;;;;;6124187;28;81358;-53
2023/02/05 14:52:49;;;;;;;8.13;5.18;;;22.60;35.60;;;;;;6106383;28;80492;-57
2023/02/05 14:55:54;;;;;;;8.93;6.00;;;22.60;34.80;;;;;;6116275;28;81656;-57
2023/02/05 14:58:55;;;;;;;7.97;5.30;;;22.60;34.70;;;;;;6136956;28;80789;-52
2023/02/05 15:01:55;;;;;;;9.20;5.30;;;22.50;34.40;;;;;;6107927;28;82117;-54
2023/02/05 15:04:56;;;;;;;8.38;5.10;;;22.50;34.30;;;;;;6108855;28;82186;-57
2023/02/05 15:07:56;;;;;;;6.35;4.50;;;22.50;34.60;;;;;;6121209;28;80495;-56
2023/02/05 15:10:57;;;;;;;7.38;4.93;;;22.50;33.90;;;;;;6122268;28;80621;-51
2023/02/05 15:13:57;;;;;;;7.40;5.10;;;22.40;33.80;;;;;;6126681;28;81058;-55
2023/02/05 15:16:58;;;;;;;7.53;5.35;;;22.40;33.50;;;;;;6131787;28;80699;-54
2023/02/05 15:19:59;;;;;;;7.00;5.03;;;22.30;33.10;;;;;;6116338;28;80106;-55
2023/02/05 15:22:59;;;;;;;9.65;5.57;;;22.20;33.00;;;;;;6110689;28;81010;-50
2023/02/05 15:26:00;;;;;;;7.63;5.05;;;22.20;33.40;;;;;;6109126;28;80506;-52
2023/02/05 15:29:00;;;;;;;7.30;4.72;;;22.20;33.30;;;;;;6107549;28;81285;-51
2023/02/05 15:32:01;;;;;;;7.95;4.82;;;22.20;33.20;;;;;;6110130;28;79917;-55
2023/02/05 15:35:01;;;;;;;8.05;4.60;;;22.20;33.10;;;;;;6109160;28;81028;-51
2023/02/05 15:38:02;;;;;;;6.82;4.57;;;22.10;33.00;;;;;;6113451;28;80688;-49
2023/02/05 15:41:02;;;;;;;7.50;4.85;;;22.10;32.80;;;;;;6125165;28;81129;-56
2023/02/05 15:44:03;;;;;;;6.05;4.65;;;22.10;32.80;;;;;;6119846;28;83486;-66
2023/02/05 15:47:03;;;;;;;6.68;4.55;;;22.00;32.60;;;;;;6120076;28;80399;-64
2023/02/05 15:50:04;;;;;;;7.45;5.03;;;22.00;32.60;;;;;;6126266;28;80632;-63